Terminal Aerodrome Forecast
Issued by NWS Caribou, ME

Home | Current Version | Previous Version | Text Only | Print | Product List | Glossary On
Versions: 1 2 3 4 5 6 7 8 9 10 11 12 13 14 15
665
FTUS41 KCAR 300533
TAFBGR
TAF
KBGR 300533Z 3006/3106 29004KT P6SM SKC
     FM301700 26008KT P6SM BKN120
     FM301800 22004KT P6SM BKN250=

USA.gov is the U.S. government's official web portal to all federal, state and local government web resources and services.